sensor_id;sensor_type;location;lat;lon;timestamp;temperature;humidity
72646;DHT22;60687;53.876;10.674;2024-02-26T00:10:08;4.50;99.90
72646;DHT22;60687;53.876;10.674;2024-02-26T00:20:21;4.50;99.90
72646;DHT22;60687;53.876;10.674;2024-02-26T00:30:29;4.40;99.90
72646;DHT22;60687;53.876;10.674;2024-02-26T00:40:48;4.40;99.90
72646;DHT22;60687;53.876;10.674;2024-02-26T00:50:58;4.30;99.90
72646;DHT22;60687;53.876;10.674;2024-02-26T01:01:12;4.20;99.90
72646;DHT22;60687;53.876;10.674;2024-02-26T01:11:14;4.10;99.90
72646;DHT22;60687;53.876;10.674;2024-02-26T01:21:19;4.10;99.90
72646;DHT22;60687;53.876;10.674;2024-02-26T01:31:23;4.00;99.90
72646;DHT22;60687;53.876;10.674;2024-02-26T01:41:27;3.90;99.90
72646;DHT22;60687;53.876;10.674;2024-02-26T01:51:29;3.90;99.90
72646;DHT22;60687;53.876;10.674;2024-02-26T02:01:44;3.80;99.90
72646;DHT22;60687;53.876;10.674;2024-02-26T02:11:47;3.70;99.90
72646;DHT22;60687;53.876;10.674;2024-02-26T02:21:52;3.70;99.90
72646;DHT22;60687;53.876;10.674;2024-02-26T02:31:57;3.50;99.90
72646;DHT22;60687;53.876;10.674;2024-02-26T02:42:02;3.50;99.90
72646;DHT22;60687;53.876;10.674;2024-02-26T02:52:04;3.40;99.90
72646;DHT22;60687;53.876;10.674;2024-02-26T03:02:09;3.40;99.90
72646;DHT22;60687;53.876;10.674;2024-02-26T03:12:13;3.20;99.90
72646;DHT22;60687;53.876;10.674;2024-02-26T03:22:18;3.10;99.90
72646;DHT22;60687;53.876;10.674;2024-02-26T03:32:23;3.00;99.90
72646;DHT22;60687;53.876;10.674;2024-02-26T03:42:29;3.00;99.90
72646;DHT22;60687;53.876;10.674;2024-02-26T03:52:33;3.00;99.90
72646;DHT22;60687;53.876;10.674;2024-02-26T04:02:38;3.00;99.90
72646;DHT22;60687;53.876;10.674;2024-02-26T04:12:42;2.90;99.90
72646;DHT22;60687;53.876;10.674;2024-02-26T04:22:46;2.90;99.90
72646;DHT22;60687;53.876;10.674;2024-02-26T04:32:49;2.90;99.90
72646;DHT22;60687;53.876;10.674;2024-02-26T04:42:55;2.80;99.90
72646;DHT22;60687;53.876;10.674;2024-02-26T04:52:58;2.80;99.90
72646;DHT22;60687;53.876;10.674;2024-02-26T05:03:05;2.90;99.90
72646;DHT22;60687;53.876;10.674;2024-02-26T05:13:09;2.80;99.90
72646;DHT22;60687;53.876;10.674;2024-02-26T05:23:13;2.80;99.90
72646;DHT22;60687;53.876;10.674;2024-02-26T05:33:16;2.70;99.90
72646;DHT22;60687;53.876;10.674;2024-02-26T05:43:22;2.60;99.90
72646;DHT22;60687;53.876;10.674;2024-02-26T05:53:27;2.50;99.90
72646;DHT22;60687;53.876;10.674;2024-02-26T06:03:31;2.40;99.90
72646;DHT22;60687;53.876;10.674;2024-02-26T06:13:34;2.40;99.90
72646;DHT22;60687;53.876;10.674;2024-02-26T06:23:40;2.40;99.90
72646;DHT22;60687;53.876;10.674;2024-02-26T06:33:43;2.30;99.90
72646;DHT22;60687;53.876;10.674;2024-02-26T06:43:49;2.10;99.90
72646;DHT22;60687;53.876;10.674;2024-02-26T06:53:55;2.10;99.90
72646;DHT22;60687;53.876;10.674;2024-02-26T07:04:04;2.10;99.90
72646;DHT22;60687;53.876;10.674;2024-02-26T07:14:10;2.20;99.90
72646;DHT22;60687;53.876;10.674;2024-02-26T07:24:16;2.20;99.90
72646;DHT22;60687;53.876;10.674;2024-02-26T07:34:23;2.20;99.90
72646;DHT22;60687;53.876;10.674;2024-02-26T07:44:31;2.30;99.90
72646;DHT22;60687;53.876;10.674;2024-02-26T07:54:34;2.30;99.90
72646;DHT22;60687;53.876;10.674;2024-02-26T08:04:37;2.40;99.90
72646;DHT22;60687;53.876;10.674;2024-02-26T08:14:41;2.60;99.90
72646;DHT22;60687;53.876;10.674;2024-02-26T08:24:46;2.70;99.90
72646;DHT22;60687;53.876;10.674;2024-02-26T08:34:51;2.90;99.90
72646;DHT22;60687;53.876;10.674;2024-02-26T08:44:56;3.00;99.90
72646;DHT22;60687;53.876;10.674;2024-02-26T08:55:05;3.20;99.90
72646;DHT22;60687;53.876;10.674;2024-02-26T09:05:17;3.30;99.90
72646;DHT22;60687;53.876;10.674;2024-02-26T09:15:34;3.40;99.90
72646;DHT22;60687;53.876;10.674;2024-02-26T09:25:48;3.60;99.90
72646;DHT22;60687;53.876;10.674;2024-02-26T09:36:03;3.70;99.90
72646;DHT22;60687;53.876;10.674;2024-02-26T09:46:22;3.90;99.90
72646;DHT22;60687;53.876;10.674;2024-02-26T09:56:32;4.10;99.90
72646;DHT22;60687;53.876;10.674;2024-02-26T10:06:46;4.20;99.90
72646;DHT22;60687;53.876;10.674;2024-02-26T10:16:53;4.30;99.90
72646;DHT22;60687;53.876;10.674;2024-02-26T10:27:05;4.40;99.90
72646;DHT22;60687;53.876;10.674;2024-02-26T10:37:17;4.60;99.90
72646;DHT22;60687;53.876;10.674;2024-02-26T10:47:38;4.70;99.90
72646;DHT22;60687;53.876;10.674;2024-02-26T10:57:44;4.90;99.90
72646;DHT22;60687;53.876;10.674;2024-02-26T11:07:50;5.00;99.90
72646;DHT22;60687;53.876;10.674;2024-02-26T11:18:00;5.10;99.90
72646;DHT22;60687;53.876;10.674;2024-02-26T11:28:11;5.30;99.90
72646;DHT22;60687;53.876;10.674;2024-02-26T11:38:21;5.30;99.90
72646;DHT22;60687;53.876;10.674;2024-02-26T11:48:25;5.40;99.90
72646;DHT22;60687;53.876;10.674;2024-02-26T11:58:31;5.50;99.90
72646;DHT22;60687;53.876;10.674;2024-02-26T12:08:40;5.50;99.90
72646;DHT22;60687;53.876;10.674;2024-02-26T12:18:47;5.50;99.90
72646;DHT22;60687;53.876;10.674;2024-02-26T12:28:54;5.60;99.90
72646;DHT22;60687;53.876;10.674;2024-02-26T12:39:00;5.70;99.90
72646;DHT22;60687;53.876;10.674;2024-02-26T12:49:05;5.70;99.90
72646;DHT22;60687;53.876;10.674;2024-02-26T12:59:10;5.80;99.90
72646;DHT22;60687;53.876;10.674;2024-02-26T13:09:15;5.80;99.90
72646;DHT22;60687;53.876;10.674;2024-02-26T13:19:20;5.90;99.90
72646;DHT22;60687;53.876;10.674;2024-02-26T13:29:26;5.90;99.90
72646;DHT22;60687;53.876;10.674;2024-02-26T13:39:29;5.90;99.90
72646;DHT22;60687;53.876;10.674;2024-02-26T13:49:33;5.90;99.90
72646;DHT22;60687;53.876;10.674;2024-02-26T13:59:39;6.00;99.90
72646;DHT22;60687;53.876;10.674;2024-02-26T14:09:44;6.00;99.90
72646;DHT22;60687;53.876;10.674;2024-02-26T14:19:52;6.10;99.90
72646;DHT22;60687;53.876;10.674;2024-02-26T14:29:57;6.10;99.90
72646;DHT22;60687;53.876;10.674;2024-02-26T14:39:59;6.10;99.90
72646;DHT22;60687;53.876;10.674;2024-02-26T14:50:05;6.10;99.90
72646;DHT22;60687;53.876;10.674;2024-02-26T15:00:10;6.10;99.90
72646;DHT22;60687;53.876;10.674;2024-02-26T15:10:14;6.00;99.90
72646;DHT22;60687;53.876;10.674;2024-02-26T15:20:17;6.00;99.90
72646;DHT22;60687;53.876;10.674;2024-02-26T15:30:24;5.80;99.90
72646;DHT22;60687;53.876;10.674;2024-02-26T15:40:30;5.70;99.90
72646;DHT22;60687;53.876;10.674;2024-02-26T15:50:34;5.60;99.90
72646;DHT22;60687;53.876;10.674;2024-02-26T16:00:40;5.60;99.90
72646;DHT22;60687;53.876;10.674;2024-02-26T16:10:46;5.50;99.90
72646;DHT22;60687;53.876;10.674;2024-02-26T16:20:48;5.40;99.90
72646;DHT22;60687;53.876;10.674;2024-02-26T16:30:52;5.30;99.90
72646;DHT22;60687;53.876;10.674;2024-02-26T16:40:54;5.20;99.90
72646;DHT22;60687;53.876;10.674;2024-02-26T16:51:01;5.10;99.90
72646;DHT22;60687;53.876;10.674;2024-02-26T17:01:05;5.10;99.90
72646;DHT22;60687;53.876;10.674;2024-02-26T17:11:22;5.00;99.90
72646;DHT22;60687;53.876;10.674;2024-02-26T17:21:26;4.90;99.90
72646;DHT22;60687;53.876;10.674;2024-02-26T17:31:30;4.90;99.90
72646;DHT22;60687;53.876;10.674;2024-02-26T17:41:38;4.80;99.90
72646;DHT22;60687;53.876;10.674;2024-02-26T17:51:48;4.70;99.90
72646;DHT22;60687;53.876;10.674;2024-02-26T18:01:54;4.70;99.90
72646;DHT22;60687;53.876;10.674;2024-02-26T18:12:04;4.60;99.90
72646;DHT22;60687;53.876;10.674;2024-02-26T18:22:14;4.60;99.90
72646;DHT22;60687;53.876;10.674;2024-02-26T18:32:27;4.60;99.90
72646;DHT22;60687;53.876;10.674;2024-02-26T18:42:45;4.50;99.90
72646;DHT22;60687;53.876;10.674;2024-02-26T18:52:53;4.50;99.90
72646;DHT22;60687;53.876;10.674;2024-02-26T19:03:01;4.40;99.90
72646;DHT22;60687;53.876;10.674;2024-02-26T19:13:10;4.30;99.90
72646;DHT22;60687;53.876;10.674;2024-02-26T19:23:13;4.30;99.90
72646;DHT22;60687;53.876;10.674;2024-02-26T19:33:34;4.20;99.90
72646;DHT22;60687;53.876;10.674;2024-02-26T19:43:48;4.20;99.90
72646;DHT22;60687;53.876;10.674;2024-02-26T19:53:52;4.20;99.90
72646;DHT22;60687;53.876;10.674;2024-02-26T20:04:04;4.10;99.90
72646;DHT22;60687;53.876;10.674;2024-02-26T20:14:21;4.10;99.90
72646;DHT22;60687;53.876;10.674;2024-02-26T20:24:35;4.00;99.90
72646;DHT22;60687;53.876;10.674;2024-02-26T20:34:50;4.00;99.90
72646;DHT22;60687;53.876;10.674;2024-02-26T20:44:55;3.90;99.90
72646;DHT22;60687;53.876;10.674;2024-02-26T20:55:07;3.90;99.90
72646;DHT22;60687;53.876;10.674;2024-02-26T21:05:14;3.90;99.90
72646;DHT22;60687;53.876;10.674;2024-02-26T21:15:37;4.00;99.90
72646;DHT22;60687;53.876;10.674;2024-02-26T21:25:42;4.00;99.90
72646;DHT22;60687;53.876;10.674;2024-02-26T21:36:05;4.00;99.90
72646;DHT22;60687;53.876;10.674;2024-02-26T21:46:11;4.00;99.90
72646;DHT22;60687;53.876;10.674;2024-02-26T21:56:14;4.10;99.90
72646;DHT22;60687;53.876;10.674;2024-02-26T22:06:20;4.10;99.90
72646;DHT22;60687;53.876;10.674;2024-02-26T22:16:33;4.10;99.90
72646;DHT22;60687;53.876;10.674;2024-02-26T22:26:44;4.20;99.90
72646;DHT22;60687;53.876;10.674;2024-02-26T22:36:48;4.20;99.90
72646;DHT22;60687;53.876;10.674;2024-02-26T22:46:50;4.20;99.90
72646;DHT22;60687;53.876;10.674;2024-02-26T22:56:57;4.20;99.90
72646;DHT22;60687;53.876;10.674;2024-02-26T23:07:00;4.30;99.90
72646;DHT22;60687;53.876;10.674;2024-02-26T23:17:04;4.30;99.90
72646;DHT22;60687;53.876;10.674;2024-02-26T23:27:07;4.30;99.90
72646;DHT22;60687;53.876;10.674;2024-02-26T23:37:11;4.20;99.90
72646;DHT22;60687;53.876;10.674;2024-02-26T23:47:14;4.20;99.90
72646;DHT22;60687;53.876;10.674;2024-02-26T23:57:19;4.20;99.90
